createdAt,value
2018-12-10T00:00:40.519Z,6.13
2018-12-10T00:03:17.047Z,5.93
2018-12-10T00:05:48.522Z,6.17
2018-12-10T00:08:18.211Z,6.60
2018-12-10T00:10:47.555Z,5.43
2018-12-10T00:13:18.061Z,5.37
2018-12-10T00:15:47.892Z,5.80
2018-12-10T00:18:17.545Z,5.10
2018-12-10T00:20:47.051Z,5.40
2018-12-10T00:23:16.683Z,5.37
2018-12-10T00:25:46.181Z,5.07
2018-12-10T00:28:15.629Z,5.27
2018-12-10T00:30:45.128Z,5.67
2018-12-10T00:33:14.424Z,5.07
2018-12-10T00:35:44.145Z,5.23
2018-12-10T00:38:13.660Z,4.77
2018-12-10T00:40:43.258Z,3.97
2018-12-10T00:43:12.744Z,5.03
2018-12-10T00:45:42.355Z,4.63
2018-12-10T00:48:11.934Z,4.83
2018-12-10T00:50:41.578Z,4.40
2018-12-10T00:53:11.178Z,4.07
2018-12-10T00:55:41.120Z,4.13
2018-12-10T00:58:10.416Z,4.13
2018-12-10T01:00:39.883Z,4.07
2018-12-10T01:03:09.381Z,3.50
2018-12-10T01:05:38.943Z,3.50
2018-12-10T01:08:08.448Z,3.53
2018-12-10T01:10:38.113Z,3.23
2018-12-10T01:13:07.670Z,2.93
2018-12-10T01:15:37.153Z,3.20
2018-12-10T01:18:06.973Z,4.07
2018-12-10T01:20:36.663Z,3.50
2018-12-10T01:23:06.289Z,2.97
2018-12-10T01:25:35.619Z,2.90
2018-12-10T01:28:05.674Z,2.93
2018-12-10T01:30:35.708Z,3.00
2018-12-10T01:33:05.229Z,3.20
2018-12-10T01:35:35.163Z,3.10
2018-12-10T01:38:04.663Z,3.37
2018-12-10T01:40:34.274Z,3.00
2018-12-10T01:43:03.786Z,3.13
2018-12-10T01:45:33.388Z,3.40
2018-12-10T01:48:02.932Z,3.67
2018-12-10T01:50:32.534Z,3.53
2018-12-10T01:53:02.960Z,3.87
2018-12-10T01:59:41.168Z,3.80
2018-12-10T02:02:13.593Z,3.87
2018-12-10T02:04:43.119Z,4.40
2018-12-10T02:07:12.387Z,4.47
2018-12-10T02:09:41.796Z,4.43
2018-12-10T02:12:12.201Z,4.33
2018-12-10T02:14:41.419Z,4.40
2018-12-10T02:17:10.927Z,4.90
2018-12-10T02:19:41.411Z,4.87
2018-12-10T02:22:10.947Z,4.93
2018-12-10T02:24:40.267Z,4.53
2018-12-10T02:27:09.551Z,4.80
2018-12-10T02:29:39.007Z,5.30
2018-12-10T02:32:08.610Z,5.03
2018-12-10T02:34:37.932Z,5.17
2018-12-10T02:37:07.233Z,4.80
2018-12-10T02:39:36.478Z,4.80
2018-12-10T02:42:05.871Z,3.97
2018-12-10T02:44:35.267Z,4.47
2018-12-10T02:47:04.630Z,4.07
2018-12-10T02:49:34.108Z,4.43
2018-12-10T02:52:03.809Z,4.77
2018-12-10T02:54:33.307Z,4.70
2018-12-10T02:57:02.712Z,4.27
2018-12-10T02:59:32.058Z,4.50
2018-12-10T03:02:01.629Z,3.87
2018-12-10T03:04:36.130Z,3.03
2018-12-10T03:07:05.654Z,2.70
2018-12-10T03:09:35.006Z,3.80
2018-12-10T03:12:04.305Z,3.93
2018-12-10T03:14:33.614Z,3.43
2018-12-10T03:17:03.114Z,3.30
2018-12-10T03:19:32.470Z,3.47
2018-12-10T03:22:01.870Z,3.20
2018-12-10T03:24:31.439Z,3.43
2018-12-10T03:27:00.884Z,3.80
2018-12-10T03:29:31.422Z,3.73
2018-12-10T03:32:00.966Z,3.20
2018-12-10T03:34:30.709Z,2.60
2018-12-10T03:37:00.303Z,2.43
2018-12-10T03:39:29.679Z,2.67
2018-12-10T03:41:59.018Z,2.90
2018-12-10T03:44:28.627Z,2.83
2018-12-10T03:46:58.067Z,2.60
2018-12-10T03:49:27.463Z,2.50
2018-12-10T03:51:56.942Z,2.73
2018-12-10T03:54:26.210Z,2.73
2018-12-10T03:56:55.550Z,3.30
2018-12-10T03:59:24.877Z,3.07
2018-12-10T04:01:54.485Z,2.70
2018-12-10T04:04:23.958Z,2.50
2018-12-10T04:06:53.453Z,2.80
2018-12-10T04:09:22.828Z,2.40
2018-12-10T04:11:52.472Z,2.53
2018-12-10T04:14:21.883Z,2.63
2018-12-10T04:16:51.180Z,2.57
2018-12-10T04:19:20.451Z,2.50
2018-12-10T04:21:50.053Z,2.73
2018-12-10T04:24:19.318Z,2.63
2018-12-10T04:26:48.666Z,2.57
2018-12-10T04:29:18.338Z,2.43
2018-12-10T04:31:47.613Z,2.20
2018-12-10T04:34:16.999Z,2.50
2018-12-10T04:36:46.318Z,2.53
2018-12-10T04:39:15.668Z,2.63
2018-12-10T04:41:45.092Z,2.73
2018-12-10T04:44:14.743Z,2.67
2018-12-10T04:46:44.417Z,2.97
2018-12-10T04:49:13.975Z,2.57
2018-12-10T04:51:43.501Z,2.90
2018-12-10T04:54:13.042Z,3.13
2018-12-10T04:56:42.366Z,3.00
2018-12-10T04:59:11.821Z,3.63
2018-12-10T05:01:41.381Z,3.27
2018-12-10T05:04:11.735Z,2.43
2018-12-10T05:06:41.394Z,1.50
2018-12-10T05:09:11.081Z,1.90
2018-12-10T05:11:40.383Z,3.53
2018-12-10T05:14:09.652Z,2.80
2018-12-10T05:16:38.983Z,3.23
2018-12-10T05:19:08.632Z,3.10
2018-12-10T05:21:37.917Z,2.77
2018-12-10T05:24:07.326Z,2.80
2018-12-10T05:26:36.800Z,2.63
2018-12-10T05:29:06.072Z,3.50
2018-12-10T05:31:35.520Z,3.40
2018-12-10T05:34:05.060Z,3.67
2018-12-10T05:36:34.402Z,3.27
2018-12-10T05:39:04.830Z,3.77
2018-12-10T05:41:36.157Z,3.27
2018-12-10T05:44:05.531Z,2.83
2018-12-10T05:46:34.806Z,2.83
2018-12-10T05:49:04.234Z,2.77
2018-12-10T05:51:33.539Z,3.40
2018-12-10T05:54:02.935Z,2.90
2018-12-10T05:56:32.335Z,2.43
2018-12-10T05:59:01.811Z,2.93
2018-12-10T06:01:32.573Z,2.53
2018-12-10T06:04:02.110Z,2.53
2018-12-10T06:06:32.499Z,2.93
2018-12-10T06:09:01.849Z,2.40
2018-12-10T06:11:34.689Z,2.87
2018-12-10T06:14:04.377Z,2.80
2018-12-10T06:16:33.883Z,2.57
2018-12-10T06:19:03.193Z,2.77
2018-12-10T06:21:32.715Z,2.13
2018-12-10T06:24:02.539Z,2.70
2018-12-10T06:26:32.671Z,3.60
2018-12-10T06:29:02.456Z,2.93
2018-12-10T06:31:31.844Z,2.60
2018-12-10T06:34:01.231Z,3.23
2018-12-10T06:36:30.864Z,3.10
2018-12-10T06:39:00.262Z,2.53
2018-12-10T06:41:29.739Z,2.57
2018-12-10T06:43:59.189Z,2.80
2018-12-10T06:46:28.615Z,2.70
2018-12-10T06:48:58.097Z,2.97
2018-12-10T06:51:27.802Z,3.20
2018-12-10T06:53:57.089Z,2.87
2018-12-10T06:56:26.466Z,3.30
2018-12-10T06:58:55.848Z,3.73
2018-12-10T07:01:25.172Z,3.00
2018-12-10T07:03:55.182Z,3.33
2018-12-10T07:06:24.506Z,3.83
2018-12-10T07:08:54.286Z,3.53
2018-12-10T07:11:23.832Z,3.90
2018-12-10T07:13:53.478Z,4.07
2018-12-10T07:16:22.796Z,2.50
2018-12-10T07:18:52.611Z,2.40
2018-12-10T07:21:22.088Z,2.00
2018-12-10T07:23:51.504Z,1.90
2018-12-10T07:26:21.024Z,1.17
2018-12-10T07:28:50.360Z,1.47
2018-12-10T07:31:19.736Z,1.63
2018-12-10T07:33:49.115Z,1.30
2018-12-10T07:36:18.370Z,1.90
2018-12-10T07:38:47.816Z,1.90
2018-12-10T07:41:17.471Z,2.00
2018-12-10T07:43:47.003Z,1.80
2018-12-10T07:46:16.435Z,2.27
2018-12-10T07:48:45.943Z,2.10
2018-12-10T07:51:15.471Z,2.17
2018-12-10T07:53:44.964Z,2.50
2018-12-10T07:56:14.326Z,5.07
2018-12-10T07:58:43.609Z,2.90
2018-12-10T08:01:12.881Z,2.70
2018-12-10T08:03:42.310Z,3.30
2018-12-10T08:06:11.732Z,2.73
2018-12-10T08:08:40.998Z,3.33
2018-12-10T08:11:10.955Z,3.53
2018-12-10T08:13:40.352Z,3.30
2018-12-10T08:16:09.851Z,3.03
2018-12-10T08:18:39.193Z,3.63
2018-12-10T08:21:08.433Z,3.77
2018-12-10T08:23:37.829Z,4.30
2018-12-10T08:26:08.203Z,3.87
2018-12-10T08:28:37.759Z,4.37
2018-12-10T08:31:07.311Z,4.97
2018-12-10T08:33:36.747Z,5.20
2018-12-10T08:36:06.177Z,5.40
2018-12-10T08:38:35.719Z,4.70
2018-12-10T08:41:04.997Z,5.20
2018-12-10T08:43:34.375Z,4.93
2018-12-10T08:46:03.851Z,4.80
2018-12-10T08:48:33.261Z,5.30
2018-12-10T08:51:02.879Z,3.93
2018-12-10T08:53:32.365Z,3.87
2018-12-10T08:56:01.995Z,4.33
2018-12-10T08:58:32.405Z,4.40
2018-12-10T09:01:02.066Z,3.60
2018-12-10T09:03:33.357Z,4.03
2018-12-10T09:06:03.212Z,4.63
2018-12-10T09:08:33.153Z,3.93
2018-12-10T09:11:03.308Z,4.97
2018-12-10T09:13:32.672Z,5.37
2018-12-10T09:16:02.606Z,5.47
2018-12-10T09:18:32.713Z,5.47
2018-12-10T09:21:02.168Z,6.27
2018-12-10T09:23:31.579Z,6.43
2018-12-10T09:26:01.078Z,6.37
2018-12-10T09:28:30.749Z,6.30
2018-12-10T09:31:00.109Z,7.57
2018-12-10T09:33:29.634Z,6.70
2018-12-10T09:35:59.006Z,8.07
2018-12-10T09:38:28.607Z,6.63
2018-12-10T09:40:58.056Z,6.27
2018-12-10T09:43:27.530Z,5.63
2018-12-10T09:45:57.016Z,5.10
2018-12-10T09:48:26.486Z,4.83
2018-12-10T09:50:55.971Z,5.13
2018-12-10T09:53:25.331Z,3.37
2018-12-10T09:55:54.872Z,4.17
2018-12-10T09:58:24.360Z,5.10
2018-12-10T10:00:53.705Z,4.40
2018-12-10T10:03:23.390Z,4.07
2018-12-10T10:05:52.834Z,4.43
2018-12-10T10:08:23.296Z,5.47
2018-12-10T10:10:52.666Z,4.30
2018-12-10T10:13:22.092Z,3.93
2018-12-10T10:15:51.980Z,3.70
2018-12-10T10:18:21.616Z,3.40
2018-12-10T10:20:51.109Z,3.30
2018-12-10T10:23:20.374Z,2.70
2018-12-10T10:25:49.827Z,4.00
2018-12-10T10:28:19.360Z,3.83
2018-12-10T10:30:48.668Z,4.10
2018-12-10T10:33:17.933Z,3.37
2018-12-10T10:35:47.224Z,3.93
2018-12-10T10:38:16.705Z,3.10
2018-12-10T10:40:45.952Z,3.20
2018-12-10T10:43:15.278Z,3.40
2018-12-10T10:45:44.730Z,3.40
2018-12-10T10:48:14.120Z,3.60
2018-12-10T10:50:43.630Z,3.50
2018-12-10T10:53:13.238Z,3.53
2018-12-10T10:55:42.522Z,3.77
2018-12-10T10:58:11.812Z,3.37
2018-12-10T11:00:46.352Z,3.90
2018-12-10T11:03:21.172Z,3.37
2018-12-10T11:05:50.541Z,3.43
2018-12-10T11:08:20.387Z,4.33
2018-12-10T11:10:51.012Z,3.67
2018-12-10T11:13:20.670Z,3.50
2018-12-10T11:15:50.274Z,4.43
2018-12-10T11:18:19.756Z,3.60
2018-12-10T11:20:49.285Z,4.20
2018-12-10T11:23:18.694Z,4.17
2018-12-10T11:25:48.199Z,4.20
2018-12-10T11:28:17.478Z,4.17
2018-12-10T11:30:47.966Z,4.00
2018-12-10T11:33:17.355Z,3.90
2018-12-10T11:35:46.835Z,4.07
2018-12-10T11:38:16.271Z,4.30
2018-12-10T11:40:46.177Z,4.67
2018-12-10T11:43:15.529Z,4.07
2018-12-10T11:45:44.826Z,4.00
2018-12-10T11:48:14.329Z,3.63
2018-12-10T11:50:43.819Z,3.67
2018-12-10T11:53:13.294Z,4.37
2018-12-10T11:55:42.790Z,4.13
2018-12-10T11:58:12.112Z,3.60
2018-12-10T12:00:42.627Z,3.83
2018-12-10T12:03:12.014Z,3.97
2018-12-10T12:05:42.173Z,3.73
2018-12-10T12:08:11.570Z,3.93
2018-12-10T12:10:41.417Z,3.90
2018-12-10T12:13:10.725Z,3.43
2018-12-10T12:15:40.078Z,3.00
2018-12-10T12:18:09.498Z,3.70
2018-12-10T12:20:40.200Z,3.40
2018-12-10T12:23:09.566Z,3.60
2018-12-10T12:25:39.586Z,3.53
2018-12-10T12:28:09.395Z,3.67
2018-12-10T12:30:38.984Z,4.03
2018-12-10T12:33:08.611Z,3.70
2018-12-10T12:35:38.252Z,4.10
2018-12-10T12:38:07.896Z,3.93
2018-12-10T12:40:37.351Z,3.50
2018-12-10T12:43:08.598Z,4.67
2018-12-10T12:45:39.350Z,4.87
2018-12-10T12:48:08.645Z,4.83
2018-12-10T12:50:38.049Z,5.20
2018-12-10T12:53:07.575Z,5.80
2018-12-10T12:55:36.989Z,5.97
2018-12-10T12:58:06.289Z,5.43
2018-12-10T13:00:41.758Z,6.23
2018-12-10T13:03:07.187Z,5.40
2018-12-10T13:05:36.427Z,5.43
2018-12-10T13:08:05.706Z,5.63
2018-12-10T13:10:35.109Z,4.83
2018-12-10T13:13:04.845Z,6.10
2018-12-10T13:15:34.585Z,5.70
2018-12-10T13:18:03.917Z,6.33
2018-12-10T13:20:33.342Z,7.20
2018-12-10T13:23:02.961Z,9.37
2018-12-10T13:25:32.451Z,8.60
2018-12-10T13:28:01.962Z,8.90
2018-12-10T13:30:31.321Z,8.80
2018-12-10T13:33:00.923Z,8.37
2018-12-10T13:35:30.311Z,8.53
2018-12-10T13:37:59.814Z,8.77
2018-12-10T13:40:29.209Z,8.23
2018-12-10T13:42:58.666Z,8.50
2018-12-10T13:45:31.154Z,8.30
2018-12-10T13:47:59.324Z,7.23
2018-12-10T13:50:28.600Z,7.37
2018-12-10T13:52:58.055Z,8.80
2018-12-10T13:55:28.919Z,8.93
2018-12-10T13:57:58.345Z,6.90
2018-12-10T14:00:27.764Z,5.87
2018-12-10T14:02:59.807Z,5.10
2018-12-10T14:05:29.156Z,4.63
2018-12-10T14:07:58.642Z,4.53
2018-12-10T14:10:29.046Z,3.80
2018-12-10T14:12:58.856Z,4.27
2018-12-10T14:15:28.692Z,4.60
2018-12-10T14:17:58.052Z,4.70
2018-12-10T14:20:27.416Z,5.07
2018-12-10T14:22:56.743Z,5.03
2018-12-10T14:25:27.396Z,4.77
2018-12-10T14:27:56.672Z,6.33
2018-12-10T14:30:26.425Z,5.97
2018-12-10T14:32:55.895Z,6.77
2018-12-10T14:35:25.659Z,6.27
2018-12-10T14:37:54.972Z,6.43
2018-12-10T14:40:24.497Z,5.77
2018-12-10T14:42:56.576Z,6.70
2018-12-10T14:45:25.915Z,6.37
2018-12-10T14:47:56.841Z,6.77
2018-12-10T14:50:26.366Z,5.13
2018-12-10T14:52:56.099Z,5.17
2018-12-10T14:55:25.743Z,5.33
2018-12-10T14:57:55.305Z,6.10
2018-12-10T15:00:24.983Z,6.00
2018-12-10T15:02:54.571Z,5.70
2018-12-10T15:05:24.483Z,5.40
2018-12-10T15:07:54.157Z,5.40
2018-12-10T15:10:23.753Z,4.93
2018-12-10T15:12:53.055Z,6.10
2018-12-10T15:15:22.606Z,5.03
2018-12-10T15:17:53.155Z,5.63
2018-12-10T15:20:22.503Z,5.90
2018-12-10T15:22:52.070Z,6.53
2018-12-10T15:25:21.712Z,5.53
2018-12-10T15:27:51.284Z,4.80
2018-12-10T15:30:20.856Z,5.57
2018-12-10T15:32:50.638Z,6.00
2018-12-10T15:35:20.299Z,5.50
2018-12-10T15:37:49.577Z,6.33
2018-12-10T15:40:19.258Z,6.30
2018-12-10T15:42:48.876Z,6.53
2018-12-10T15:45:18.331Z,5.50
2018-12-10T15:47:48.310Z,5.50
2018-12-10T15:50:17.629Z,3.87
2018-12-10T15:52:47.095Z,4.67
2018-12-10T15:55:16.607Z,4.90
2018-12-10T15:57:45.903Z,4.80
2018-12-10T16:00:15.123Z,4.70
2018-12-10T16:02:44.649Z,4.07
2018-12-10T16:05:14.091Z,3.87
2018-12-10T16:07:44.679Z,4.33
2018-12-10T16:10:13.978Z,4.40
2018-12-10T16:12:43.417Z,4.60
2018-12-10T16:15:12.702Z,4.53
2018-12-10T16:17:42.320Z,5.33
2018-12-10T16:20:11.702Z,6.00
2018-12-10T16:22:41.565Z,6.37
2018-12-10T16:25:11.500Z,7.60
2018-12-10T16:27:41.019Z,6.77
2018-12-10T16:30:10.537Z,9.43
2018-12-10T16:32:40.412Z,10.47
2018-12-10T16:35:09.871Z,11.10
2018-12-10T16:37:39.478Z,12.03
2018-12-10T16:40:09.512Z,12.97
2018-12-10T16:42:38.891Z,13.27
2018-12-10T16:45:09.201Z,12.33
2018-12-10T16:47:38.720Z,13.20
2018-12-10T16:50:09.206Z,11.90
2018-12-10T16:52:38.688Z,12.03
2018-12-10T16:55:08.485Z,9.77
2018-12-10T16:57:38.577Z,9.87
2018-12-10T17:00:11.709Z,11.23
2018-12-10T17:02:42.296Z,9.80
2018-12-10T17:05:18.379Z,10.50
2018-12-10T17:07:47.685Z,12.43
2018-12-10T17:10:16.961Z,13.13
2018-12-10T17:12:46.260Z,11.03
2018-12-10T17:15:15.912Z,8.70
2018-12-10T17:17:45.446Z,11.00
2018-12-10T17:20:15.003Z,11.87
2018-12-10T17:22:44.473Z,11.97
2018-12-10T17:25:14.272Z,9.33
2018-12-10T17:27:44.382Z,8.23
2018-12-10T17:30:14.080Z,11.57
2018-12-10T17:32:43.778Z,10.57
2018-12-10T17:35:13.928Z,12.60
2018-12-10T17:37:43.573Z,10.87
2018-12-10T17:40:12.891Z,12.33
2018-12-10T17:42:42.424Z,14.77
2018-12-10T17:45:11.735Z,14.67
2018-12-10T17:47:41.084Z,16.03
2018-12-10T17:50:12.082Z,14.87
2018-12-10T17:52:41.737Z,16.47
2018-12-10T17:55:11.169Z,15.47
2018-12-10T17:57:41.743Z,17.07
2018-12-10T18:00:12.102Z,15.20
2018-12-10T18:02:41.760Z,17.40
2018-12-10T18:05:11.416Z,16.87
2018-12-10T18:07:41.328Z,21.10
2018-12-10T18:10:11.257Z,20.93
2018-12-10T18:12:40.934Z,18.70
2018-12-10T18:15:10.597Z,15.50
2018-12-10T18:17:40.257Z,19.23
2018-12-10T18:20:11.771Z,14.80
2018-12-10T18:22:41.536Z,15.87
2018-12-10T18:25:11.003Z,18.80
2018-12-10T18:27:40.611Z,18.53
2018-12-10T18:30:12.003Z,19.33
2018-12-10T18:32:42.084Z,19.73
2018-12-10T18:35:12.307Z,19.60
2018-12-10T18:37:41.907Z,20.07
2018-12-10T18:40:13.033Z,28.43
2018-12-10T18:42:42.923Z,23.70
2018-12-10T18:45:15.113Z,19.57
2018-12-10T18:47:45.288Z,18.57
2018-12-10T18:50:15.122Z,15.13
2018-12-10T18:52:44.974Z,11.63
2018-12-10T18:55:15.138Z,14.83
2018-12-10T18:57:44.674Z,12.77
2018-12-10T19:00:15.302Z,10.50
2018-12-10T19:02:45.419Z,16.17
2018-12-10T19:05:15.215Z,9.70
2018-12-10T19:07:44.906Z,13.90
2018-12-10T19:10:14.640Z,17.17
2018-12-10T19:12:45.008Z,16.00
2018-12-10T19:15:14.547Z,11.60
2018-12-10T19:17:44.122Z,10.90
2018-12-10T19:20:13.966Z,16.73
2018-12-10T19:22:43.783Z,15.67
2018-12-10T19:25:13.309Z,15.07
2018-12-10T19:27:43.146Z,13.37
2018-12-10T19:30:12.705Z,16.40
2018-12-10T19:32:42.721Z,14.40
2018-12-10T19:35:12.682Z,16.73
2018-12-10T19:37:42.434Z,20.10
2018-12-10T19:40:11.985Z,20.13
2018-12-10T19:42:41.941Z,22.33
2018-12-10T19:45:11.483Z,19.83
2018-12-10T19:47:41.435Z,23.77
2018-12-10T19:50:11.254Z,20.60
2018-12-10T19:52:40.984Z,16.93
2018-12-10T19:55:10.430Z,21.57
2018-12-10T19:57:40.294Z,20.50
2018-12-10T20:00:09.761Z,22.30
2018-12-10T20:02:39.361Z,20.53
2018-12-10T20:05:09.006Z,21.97
2018-12-10T20:07:38.560Z,21.90
2018-12-10T20:10:09.496Z,20.57
2018-12-10T20:12:40.454Z,19.97
2018-12-10T20:15:09.938Z,20.53
2018-12-10T20:17:39.696Z,19.90
2018-12-10T20:20:10.398Z,21.03
2018-12-10T20:22:40.321Z,19.43
2018-12-10T20:25:09.709Z,17.87
2018-12-10T20:27:39.504Z,19.87
2018-12-10T20:30:09.518Z,20.47
2018-12-10T20:32:39.875Z,18.97
2018-12-10T20:35:11.004Z,19.47
2018-12-10T20:37:40.738Z,17.20
2018-12-10T20:40:10.848Z,18.67
2018-12-10T20:42:40.876Z,17.63
2018-12-10T20:45:11.121Z,16.50
2018-12-10T20:47:41.078Z,17.73
2018-12-10T20:50:11.000Z,18.27
2018-12-10T20:52:40.645Z,16.70
2018-12-10T20:55:10.328Z,16.90
2018-12-10T20:57:41.582Z,16.20
2018-12-10T21:00:11.562Z,14.13
2018-12-10T21:02:41.283Z,14.40
2018-12-10T21:05:11.178Z,15.97
2018-12-10T21:07:41.182Z,16.23
2018-12-10T21:10:11.354Z,16.23
2018-12-10T21:12:41.265Z,16.30
2018-12-10T21:15:10.975Z,15.17
2018-12-10T21:17:40.755Z,14.33
2018-12-10T21:20:10.321Z,16.40
2018-12-10T21:22:41.169Z,14.60
2018-12-10T21:25:10.702Z,13.47
2018-12-10T21:27:40.400Z,14.83
2018-12-10T21:30:10.284Z,13.57
2018-12-10T21:32:39.886Z,12.23
2018-12-10T21:35:09.528Z,14.17
2018-12-10T21:37:39.542Z,12.93
2018-12-10T21:40:09.499Z,14.73
2018-12-10T21:42:39.490Z,10.77
2018-12-10T21:45:09.332Z,13.90
2018-12-10T21:47:39.750Z,12.00
2018-12-10T21:50:09.626Z,13.07
2018-12-10T21:52:39.119Z,12.27
2018-12-10T21:55:08.624Z,13.63
2018-12-10T21:57:38.126Z,12.23
2018-12-10T22:00:07.694Z,12.30
2018-12-10T22:02:37.540Z,14.87
2018-12-10T22:05:06.845Z,14.43
2018-12-10T22:07:37.061Z,14.63
2018-12-10T22:10:07.040Z,13.90
2018-12-10T22:12:36.448Z,14.30
2018-12-10T22:15:06.415Z,13.53
2018-12-10T22:17:36.246Z,13.87
2018-12-10T22:20:06.364Z,12.80
2018-12-10T22:22:36.161Z,12.33
2018-12-10T22:25:06.399Z,11.40
2018-12-10T22:27:36.011Z,13.80
2018-12-10T22:30:06.451Z,11.67
2018-12-10T22:32:37.017Z,12.03
2018-12-10T22:35:06.854Z,17.17
2018-12-10T22:37:36.605Z,13.43
2018-12-10T22:40:06.843Z,13.97
2018-12-10T22:42:36.485Z,14.07
2018-12-10T22:45:06.733Z,13.50
2018-12-10T22:47:36.218Z,13.73
2018-12-10T22:50:06.210Z,14.70
2018-12-10T22:52:35.762Z,11.60
2018-12-10T22:55:05.760Z,12.97
2018-12-10T22:57:35.282Z,14.07
2018-12-10T23:00:06.205Z,12.87
2018-12-10T23:02:37.786Z,11.87
2018-12-10T23:05:07.366Z,14.23
2018-12-10T23:07:38.859Z,13.20
2018-12-10T23:10:08.887Z,13.00
2018-12-10T23:12:38.572Z,15.37
2018-12-10T23:15:08.550Z,11.90
2018-12-10T23:17:38.827Z,12.17
2018-12-10T23:20:08.954Z,13.07
2018-12-10T23:22:39.066Z,12.60
2018-12-10T23:25:08.864Z,11.70
2018-12-10T23:27:38.623Z,13.30
2018-12-10T23:30:08.508Z,12.00
2018-12-10T23:32:39.404Z,11.50
2018-12-10T23:35:09.370Z,10.43
2018-12-10T23:37:39.104Z,11.17
2018-12-10T23:40:09.307Z,11.87
2018-12-10T23:42:43.295Z,10.97
2018-12-10T23:45:13.516Z,11.37
2018-12-10T23:47:43.863Z,10.57
2018-12-10T23:50:15.932Z,10.47
2018-12-10T23:52:46.294Z,9.90
2018-12-10T23:55:16.310Z,11.33
2018-12-10T23:58:02.224Z,8.97
